This is the latest recevied weather packets stored in our database for station/object SP9KB-13. If no packets are shown the sender has not sent any weather packets the latest 1 day(s).
| Time | Temp. | Humidity | Pressure | Rain* | Wind** | Luminosity | Snow |
|---|---|---|---|---|---|---|---|
| 1777962947 | 17.22° C | 44% | 995.5 hPa | 0 mm | 0.45 m/s, 207° | - | - |
| 1777962646 | 17.78° C | 43% | 995.5 hPa | 0 mm | 0 m/s | - | - |
| 1777962346 | 17.22° C | 45% | 995.5 hPa | 0 mm | 0 m/s | - | - |
| 1777962045 | 17.22° C | 44% | 995.6 hPa | 0 mm | 0 m/s | - | - |
| 1777961745 | 17.22° C | 45% | 995.6 hPa | 0 mm | 0.45 m/s, 211° | - | - |
| 1777961444 | 17.22° C | 45% | 995.6 hPa | 0 mm | 1.34 m/s, 230° | - | - |
| 1777961144 | 17.22° C | 45% | 995.6 hPa | 0 mm | 0 m/s | - | - |
| 1777960843 | 17.22° C | 44% | 995.6 hPa | 0 mm | 0 m/s | - | - |
| 1777960542 | 17.22° C | 44% | 995.5 hPa | 0 mm | 0.45 m/s, 208° | - | - |
| 1777960242 | 17.22° C | 43% | 995.6 hPa | 0 mm | 0.89 m/s, 186° | - | - |
| 1777959941 | 17.22° C | 47% | 995.9 hPa | 0 mm | 0 m/s | - | - |
| 1777959641 | 16.67° C | 45% | 995.7 hPa | 0 mm | 0 m/s | - | - |
| 1777959340 | 16.67° C | 44% | 995.8 hPa | 0 mm | 0.89 m/s, 226° | - | - |
| 1777959039 | 16.11° C | 46% | 995.8 hPa | 0 mm | 0.45 m/s, 230° | - | - |
| 1777958739 | 16.11° C | 47% | 995.7 hPa | 0 mm | 0.45 m/s, 210° | - | - |
| 1777958438 | 15.56° C | 48% | 995.9 hPa | 0 mm | 0 m/s | - | - |
| 1777958138 | 15° C | 49% | 996 hPa | 0 mm | 0.89 m/s, 209° | - | - |
| 1777957837 | 13.33° C | 59% | 995.9 hPa | 0 mm | 0 m/s | - | - |
| 1777957544 | 11.67° C | 69% | 995.9 hPa | 0 mm | 0 m/s | - | - |
| 1777957236 | 10° C | 74% | 995.9 hPa | 0 mm | 0 m/s | - | - |
| 1777956935 | 8.89° C | 74% | 996 hPa | 0 mm | 0 m/s | - | - |
| 1777956635 | 7.78° C | 79% | 996 hPa | 0 mm | 0 m/s | - | - |
| 1777956334 | 7.22° C | 82% | 995.9 hPa | 0 mm | 0.45 m/s, 130° | - | - |
| 1777956034 | 7.22° C | 82% | 995.9 hPa | 0 mm | 0 m/s | - | - |
| 1777955733 | 7.22° C | 81% | 996 hPa | 0 mm | 0 m/s | - | - |
* Rain latest hour (hover to see other rain measurements)
** Current wind speed in m/s (hover to see current wind gust speed)